createdAt,value
2019-02-03T00:00:08.736Z,0.80
2019-02-03T00:01:08.639Z,0.70
2019-02-03T00:02:08.643Z,0.80
2019-02-03T00:03:08.645Z,0.70
2019-02-03T00:04:08.650Z,0.80
2019-02-03T00:05:08.654Z,0.80
2019-02-03T00:06:08.656Z,0.70
2019-02-03T00:07:08.660Z,0.80
2019-02-03T00:08:08.662Z,0.70
2019-02-03T00:09:08.668Z,0.70
2019-02-03T00:10:08.670Z,0.80
2019-02-03T00:11:08.674Z,0.80
2019-02-03T00:12:08.675Z,0.70
2019-02-03T00:13:08.729Z,0.80
2019-02-03T00:14:08.683Z,0.70
2019-02-03T00:15:08.785Z,0.70
2019-02-03T00:16:08.690Z,0.70
2019-02-03T00:17:08.691Z,0.70
2019-02-03T00:18:08.694Z,0.70
2019-02-03T00:19:08.698Z,0.70
2019-02-03T00:20:08.701Z,0.70
2019-02-03T00:21:08.705Z,0.80
2019-02-03T00:22:08.725Z,0.70
2019-02-03T00:23:08.711Z,0.80
2019-02-03T00:24:08.714Z,0.80
2019-02-03T00:25:08.718Z,0.70
2019-02-03T00:26:08.722Z,0.70
2019-02-03T00:27:08.724Z,0.80
2019-02-03T00:28:08.733Z,0.70
2019-02-03T00:29:08.730Z,0.90
2019-02-03T00:30:08.734Z,0.80
2019-02-03T00:31:08.740Z,0.70
2019-02-03T00:32:08.740Z,0.70
2019-02-03T00:33:08.744Z,0.70
2019-02-03T00:34:08.748Z,0.80
2019-02-03T00:35:08.750Z,0.80
2019-02-03T00:36:08.756Z,0.70
2019-02-03T00:37:16.344Z,0.80
2019-02-03T00:38:19.919Z,0.70
2019-02-03T00:39:08.781Z,0.60
2019-02-03T00:40:08.770Z,0.70
2019-02-03T00:41:08.797Z,0.90
2019-02-03T00:42:08.775Z,0.80
2019-02-03T00:43:08.776Z,0.70
2019-02-03T00:44:08.781Z,0.70
2019-02-03T00:45:08.784Z,0.90
2019-02-03T00:46:08.786Z,0.80
2019-02-03T00:47:08.789Z,0.60
2019-02-03T00:48:08.793Z,0.70
2019-02-03T00:49:08.797Z,0.80
2019-02-03T00:50:08.804Z,0.80
2019-02-03T00:51:10.007Z,0.70
2019-02-03T00:52:08.806Z,0.70
2019-02-03T00:53:08.811Z,0.70
2019-02-03T00:54:08.812Z,0.70
2019-02-03T00:55:08.814Z,0.60
2019-02-03T00:56:08.827Z,0.70
2019-02-03T00:57:08.822Z,0.60
2019-02-03T00:58:08.828Z,0.70
2019-02-03T00:59:08.830Z,0.70
2019-02-03T01:00:08.879Z,0.80
2019-02-03T01:01:08.841Z,0.80
2019-02-03T01:02:08.840Z,0.70
2019-02-03T01:03:08.843Z,0.70
2019-02-03T01:04:08.844Z,0.60
2019-02-03T01:05:08.849Z,0.80
2019-02-03T01:06:08.999Z,0.70
2019-02-03T01:07:08.904Z,0.70
2019-02-03T01:08:08.858Z,0.60
2019-02-03T01:09:08.861Z,0.60
2019-02-03T01:10:08.867Z,0.70
2019-02-03T01:11:08.866Z,0.70
2019-02-03T01:12:08.872Z,0.70
2019-02-03T01:13:08.876Z,0.80
2019-02-03T01:14:08.878Z,0.70
2019-02-03T01:15:08.879Z,0.60
2019-02-03T01:16:08.884Z,0.60
2019-02-03T01:17:08.886Z,0.70
2019-02-03T01:18:08.891Z,0.80
2019-02-03T01:19:08.900Z,0.80
2019-02-03T01:20:08.897Z,0.80
2019-02-03T01:21:08.908Z,0.80
2019-02-03T01:22:08.954Z,0.70
2019-02-03T01:23:08.907Z,0.70
2019-02-03T01:24:08.910Z,0.60
2019-02-03T01:25:08.914Z,0.80
2019-02-03T01:26:08.917Z,0.90
2019-02-03T01:27:08.921Z,0.70
2019-02-03T01:28:08.924Z,0.70
2019-02-03T01:29:08.928Z,0.70
2019-02-03T01:30:08.932Z,0.70
2019-02-03T01:31:08.932Z,0.60
2019-02-03T01:32:08.936Z,0.60
2019-02-03T01:33:08.940Z,0.80
2019-02-03T01:34:08.941Z,0.60
2019-02-03T01:35:08.945Z,0.70
2019-02-03T01:36:08.960Z,0.70
2019-02-03T01:37:08.969Z,0.70
2019-02-03T01:38:08.957Z,0.70
2019-02-03T01:39:08.958Z,0.80
2019-02-03T01:40:08.962Z,0.60
2019-02-03T01:41:08.966Z,0.80
2019-02-03T01:42:08.968Z,0.70
2019-02-03T01:43:08.971Z,0.70
2019-02-03T01:44:08.975Z,0.90
2019-02-03T01:45:08.979Z,0.70
2019-02-03T01:46:09.098Z,0.60
2019-02-03T01:47:08.984Z,0.60
2019-02-03T01:48:09.077Z,0.70
2019-02-03T01:49:08.996Z,0.80
2019-02-03T01:50:08.995Z,0.80
2019-02-03T01:51:09.009Z,0.80
2019-02-03T01:52:09.001Z,0.50
2019-02-03T01:53:09.004Z,0.80
2019-02-03T01:54:09.008Z,0.70
2019-02-03T01:55:09.022Z,0.80
2019-02-03T01:56:09.025Z,0.60
2019-02-03T01:57:09.019Z,0.80
2019-02-03T01:58:09.020Z,0.50
2019-02-03T01:59:09.023Z,0.60
2019-02-03T02:00:09.027Z,0.50
2019-02-03T02:01:09.030Z,0.70
2019-02-03T02:02:09.034Z,0.60
2019-02-03T02:03:09.046Z,0.60
2019-02-03T02:04:09.038Z,0.60
2019-02-03T02:05:09.046Z,0.70
2019-02-03T02:06:09.047Z,0.60
2019-02-03T02:07:09.050Z,0.70
2019-02-03T02:08:09.103Z,0.70
2019-02-03T02:09:09.108Z,0.60
2019-02-03T02:10:09.060Z,0.70
2019-02-03T02:11:09.060Z,0.80
2019-02-03T02:12:09.069Z,0.70
2019-02-03T02:13:09.070Z,0.60
2019-02-03T02:14:09.075Z,0.70
2019-02-03T02:15:09.076Z,0.60
2019-02-03T02:16:09.078Z,0.60
2019-02-03T02:17:09.083Z,0.50
2019-02-03T02:18:09.087Z,0.50
2019-02-03T02:19:09.141Z,0.60
2019-02-03T02:20:09.092Z,0.70
2019-02-03T02:21:09.097Z,0.70
2019-02-03T02:22:09.099Z,0.60
2019-02-03T02:23:09.102Z,0.70
2019-02-03T02:24:09.105Z,0.50
2019-02-03T02:25:09.211Z,0.60
2019-02-03T02:26:09.212Z,0.70
2019-02-03T02:27:09.117Z,0.60
2019-02-03T02:28:09.118Z,0.70
2019-02-03T02:29:09.172Z,0.60
2019-02-03T02:30:09.276Z,0.60
2019-02-03T02:31:09.137Z,0.60
2019-02-03T02:32:09.133Z,0.70
2019-02-03T02:33:09.136Z,0.60
2019-02-03T02:34:09.138Z,0.90
2019-02-03T02:35:09.298Z,0.50
2019-02-03T02:36:09.375Z,0.50
2019-02-03T02:37:09.148Z,0.50
2019-02-03T02:38:09.151Z,0.70
2019-02-03T02:39:09.154Z,0.50
2019-02-03T02:40:12.848Z,0.50
2019-02-03T02:41:09.259Z,0.60
2019-02-03T02:42:09.164Z,0.50
2019-02-03T02:43:09.166Z,0.60
2019-02-03T02:44:09.171Z,0.70
2019-02-03T02:45:09.178Z,0.50
2019-02-03T02:46:09.186Z,0.60
2019-02-03T02:47:09.180Z,0.70
2019-02-03T02:48:09.182Z,0.80
2019-02-03T02:49:09.190Z,0.50
2019-02-03T02:50:09.191Z,0.70
2019-02-03T02:51:09.200Z,0.50
2019-02-03T02:52:09.195Z,0.60
2019-02-03T02:53:09.200Z,0.70
2019-02-03T02:54:09.206Z,0.60
2019-02-03T02:55:09.206Z,0.50
2019-02-03T02:56:09.216Z,0.60
2019-02-03T02:57:09.212Z,0.50
2019-02-03T02:58:09.216Z,0.50
2019-02-03T02:59:09.216Z,0.60
2019-02-03T03:00:09.221Z,0.50
2019-02-03T03:01:09.238Z,0.60
2019-02-03T03:02:09.235Z,0.50
2019-02-03T03:03:09.233Z,0.50
2019-02-03T03:04:09.233Z,0.50
2019-02-03T03:05:09.239Z,0.60
2019-02-03T03:06:09.247Z,0.70
2019-02-03T03:07:09.250Z,0.60
2019-02-03T03:08:18.419Z,0.70
2019-02-03T03:09:09.256Z,0.70
2019-02-03T03:10:09.262Z,0.50
2019-02-03T03:11:09.267Z,0.60
2019-02-03T03:12:09.264Z,0.60
2019-02-03T03:13:09.264Z,0.60
2019-02-03T03:14:09.268Z,0.50
2019-02-03T03:15:09.370Z,0.50
2019-02-03T03:16:09.274Z,0.70
2019-02-03T03:17:09.282Z,0.60
2019-02-03T03:18:09.287Z,0.60
2019-02-03T03:19:09.284Z,0.50
2019-02-03T03:20:09.288Z,0.60
2019-02-03T03:21:09.295Z,0.60
2019-02-03T03:22:09.293Z,0.70
2019-02-03T03:23:09.306Z,0.60
2019-02-03T03:24:09.300Z,0.60
2019-02-03T03:25:09.305Z,0.60
2019-02-03T03:26:09.311Z,0.60
2019-02-03T03:27:09.311Z,0.50
2019-02-03T03:28:09.382Z,0.60
2019-02-03T03:29:09.316Z,0.40
2019-02-03T03:30:09.577Z,0.60
2019-02-03T03:31:09.339Z,0.60
2019-02-03T03:32:09.430Z,0.60
2019-02-03T03:33:09.330Z,0.60
2019-02-03T03:34:09.435Z,0.50
2019-02-03T03:35:09.339Z,0.50
2019-02-03T03:36:09.342Z,0.60
2019-02-03T03:37:09.342Z,0.40
2019-02-03T03:38:09.345Z,0.50
2019-02-03T03:39:09.349Z,0.50
2019-02-03T03:40:09.354Z,0.50
2019-02-03T03:41:09.359Z,0.70
2019-02-03T03:42:09.359Z,0.50
2019-02-03T03:43:09.361Z,0.60
2019-02-03T03:44:09.367Z,0.50
2019-02-03T03:45:09.368Z,0.40
2019-02-03T03:46:09.373Z,0.50
2019-02-03T03:47:09.473Z,0.60
2019-02-03T03:48:09.379Z,0.50
2019-02-03T03:49:09.383Z,0.50
2019-02-03T03:50:09.382Z,0.50
2019-02-03T03:51:09.440Z,0.60
2019-02-03T03:52:09.390Z,0.50
2019-02-03T03:53:09.394Z,0.60
2019-02-03T03:54:09.452Z,0.60
2019-02-03T03:55:09.402Z,0.60
2019-02-03T03:56:09.412Z,0.50
2019-02-03T03:57:09.407Z,0.50
2019-02-03T03:58:09.429Z,0.50
2019-02-03T03:59:09.411Z,0.50
2019-02-03T04:00:09.467Z,0.60
2019-02-03T04:01:09.468Z,0.50
2019-02-03T04:02:09.425Z,0.50
2019-02-03T04:03:09.425Z,0.50
2019-02-03T04:04:09.432Z,0.60
2019-02-03T04:05:09.434Z,0.50
2019-02-03T04:06:09.437Z,0.50
2019-02-03T04:07:09.489Z,0.40
2019-02-03T04:08:09.443Z,0.50
2019-02-03T04:09:09.444Z,0.50
2019-02-03T04:10:09.449Z,0.50
2019-02-03T04:11:09.452Z,0.50
2019-02-03T04:12:09.456Z,0.60
2019-02-03T04:13:09.497Z,0.50
2019-02-03T04:14:09.461Z,0.50
2019-02-03T04:15:09.465Z,0.40
2019-02-03T04:16:09.468Z,0.70
2019-02-03T04:17:09.471Z,0.40
2019-02-03T04:18:09.476Z,0.50
2019-02-03T04:19:09.479Z,0.40
2019-02-03T04:20:09.481Z,0.60
2019-02-03T04:21:09.492Z,0.40
2019-02-03T04:22:09.498Z,0.40
2019-02-03T04:23:09.491Z,0.50
2019-02-03T04:24:09.493Z,0.40
2019-02-03T04:25:09.499Z,0.50
2019-02-03T04:26:09.512Z,0.50
2019-02-03T04:27:09.578Z,0.50
2019-02-03T04:28:09.508Z,0.60
2019-02-03T04:29:12.171Z,0.50
2019-02-03T04:30:09.680Z,0.50
2019-02-03T04:31:09.524Z,0.50
2019-02-03T04:32:09.519Z,0.50
2019-02-03T04:33:09.524Z,0.50
2019-02-03T04:34:09.527Z,0.40
2019-02-03T04:35:09.686Z,0.50
2019-02-03T04:36:09.534Z,0.50
2019-02-03T04:37:09.537Z,0.60
2019-02-03T04:38:09.539Z,0.40
2019-02-03T04:39:09.541Z,0.40
2019-02-03T04:40:09.546Z,0.40
2019-02-03T04:41:09.555Z,0.50
2019-02-03T04:42:09.553Z,0.50
2019-02-03T04:43:09.556Z,0.50
2019-02-03T04:44:09.559Z,0.40
2019-02-03T04:45:09.579Z,0.50
2019-02-03T04:46:09.564Z,0.50
2019-02-03T04:47:09.568Z,0.40
2019-02-03T04:48:09.578Z,0.40
2019-02-03T04:49:09.607Z,0.50
2019-02-03T04:50:09.578Z,0.40
2019-02-03T04:51:09.579Z,0.50
2019-02-03T04:52:09.586Z,0.40
2019-02-03T04:53:09.589Z,0.40
2019-02-03T04:54:09.592Z,0.40
2019-02-03T04:55:09.593Z,0.50
2019-02-03T04:56:09.604Z,0.40
2019-02-03T04:57:09.602Z,0.40
2019-02-03T04:58:09.604Z,0.50
2019-02-03T04:59:09.610Z,0.50
2019-02-03T05:00:09.610Z,0.40
2019-02-03T05:01:09.613Z,0.40
2019-02-03T05:02:09.617Z,0.50
2019-02-03T05:03:09.620Z,0.40
2019-02-03T05:04:09.623Z,0.40
2019-02-03T05:05:09.678Z,0.40
2019-02-03T05:06:09.637Z,0.50
2019-02-03T05:07:09.749Z,0.40
2019-02-03T05:08:09.645Z,0.40
2019-02-03T05:09:11.326Z,0.40
2019-02-03T05:10:09.643Z,0.30
2019-02-03T05:11:09.643Z,0.50
2019-02-03T05:12:09.649Z,0.40
2019-02-03T05:13:09.651Z,0.50
2019-02-03T05:14:09.652Z,0.40
2019-02-03T05:15:09.659Z,0.30
2019-02-03T05:16:09.661Z,0.40
2019-02-03T05:17:09.676Z,0.40
2019-02-03T05:18:09.668Z,0.40
2019-02-03T05:19:09.671Z,0.50
2019-02-03T05:20:09.676Z,0.40
2019-02-03T05:21:09.698Z,0.50
2019-02-03T05:22:09.681Z,0.40
2019-02-03T05:23:09.756Z,0.40
2019-02-03T05:24:09.688Z,0.40
2019-02-03T05:25:09.691Z,0.40
2019-02-03T05:26:09.696Z,0.40
2019-02-03T05:27:09.698Z,0.40
2019-02-03T05:28:09.704Z,0.30
2019-02-03T05:29:09.704Z,0.30
2019-02-03T05:30:09.707Z,0.40
2019-02-03T05:31:09.721Z,0.30
2019-02-03T05:32:09.711Z,0.40
2019-02-03T05:33:09.718Z,0.30
2019-02-03T05:34:09.720Z,0.30
2019-02-03T05:35:09.723Z,0.40
2019-02-03T05:36:09.855Z,0.40
2019-02-03T05:37:09.730Z,0.40
2019-02-03T05:38:09.734Z,0.50
2019-02-03T05:39:09.739Z,0.40
2019-02-03T05:40:09.740Z,0.40
2019-02-03T05:41:09.778Z,0.40
2019-02-03T05:42:09.748Z,0.40
2019-02-03T05:43:09.798Z,0.30
2019-02-03T05:44:09.760Z,0.40
2019-02-03T05:45:09.860Z,0.30
2019-02-03T05:46:09.763Z,0.30
2019-02-03T05:47:09.763Z,0.40
2019-02-03T05:48:09.771Z,0.40
2019-02-03T05:49:09.770Z,0.30
2019-02-03T05:50:09.772Z,0.30
2019-02-03T05:51:09.782Z,0.40
2019-02-03T05:52:09.778Z,0.30
2019-02-03T05:53:09.780Z,0.40
2019-02-03T05:54:09.785Z,0.40
2019-02-03T05:55:09.941Z,0.40
2019-02-03T05:56:09.841Z,0.30
2019-02-03T05:57:09.794Z,0.40
2019-02-03T05:58:09.797Z,0.30
2019-02-03T05:59:09.800Z,0.40
2019-02-03T06:00:09.953Z,0.30
2019-02-03T06:01:09.808Z,0.40
2019-02-03T06:02:10.201Z,0.40
2019-02-03T06:03:09.811Z,0.40
2019-02-03T06:04:09.815Z,0.40
2019-02-03T06:05:09.823Z,0.40
2019-02-03T06:06:09.823Z,0.40
2019-02-03T06:07:09.825Z,0.40
2019-02-03T06:08:09.942Z,0.40
2019-02-03T06:09:09.843Z,0.30
2019-02-03T06:10:10.091Z,0.30
2019-02-03T06:11:09.845Z,0.40
2019-02-03T06:12:09.843Z,0.30
2019-02-03T06:13:09.877Z,0.30
2019-02-03T06:14:09.848Z,0.40
2019-02-03T06:15:09.850Z,0.40
2019-02-03T06:16:09.857Z,0.30
2019-02-03T06:17:09.859Z,0.40
2019-02-03T06:18:09.862Z,0.30
2019-02-03T06:19:09.866Z,0.30
2019-02-03T06:20:09.905Z,0.30
2019-02-03T06:21:09.889Z,0.30
2019-02-03T06:22:09.925Z,0.30
2019-02-03T06:23:09.883Z,0.30
2019-02-03T06:24:09.881Z,0.40
2019-02-03T06:25:10.086Z,0.30
2019-02-03T06:26:09.887Z,0.40
2019-02-03T06:27:09.890Z,0.30
2019-02-03T06:28:09.894Z,0.30
2019-02-03T06:29:09.897Z,0.40
2019-02-03T06:30:09.899Z,0.40
2019-02-03T06:31:09.900Z,0.30
2019-02-03T06:32:09.907Z,0.40
2019-02-03T06:33:09.911Z,0.30
2019-02-03T06:34:09.914Z,0.30
2019-02-03T06:35:09.916Z,0.30
2019-02-03T06:36:09.924Z,0.30
2019-02-03T06:37:09.926Z,0.30
2019-02-03T06:38:09.933Z,0.30
2019-02-03T06:39:09.935Z,0.30
2019-02-03T06:40:09.938Z,0.30
2019-02-03T06:41:09.935Z,0.30
2019-02-03T06:42:09.940Z,0.30
2019-02-03T06:43:09.942Z,0.30
2019-02-03T06:44:09.946Z,0.30
2019-02-03T06:45:09.960Z,0.30
2019-02-03T06:46:09.963Z,0.30
2019-02-03T06:47:09.955Z,0.30
2019-02-03T06:48:09.965Z,0.30
2019-02-03T06:49:09.961Z,0.30
2019-02-03T06:50:09.965Z,0.30
2019-02-03T06:51:09.968Z,0.30
2019-02-03T06:52:09.972Z,0.30
2019-02-03T06:53:09.975Z,0.30
2019-02-03T06:54:10.078Z,0.30
2019-02-03T06:55:10.000Z,0.30
2019-02-03T06:56:09.987Z,0.30
2019-02-03T06:57:09.985Z,0.30
2019-02-03T06:58:09.990Z,0.30
2019-02-03T06:59:09.992Z,0.20
2019-02-03T07:00:10.147Z,0.30
2019-02-03T07:01:10.100Z,0.30
2019-02-03T07:02:10.054Z,0.30
2019-02-03T07:03:10.005Z,0.30
2019-02-03T07:04:10.010Z,0.30
2019-02-03T07:05:10.013Z,0.30
2019-02-03T07:06:10.014Z,0.30
2019-02-03T07:07:10.066Z,0.30
2019-02-03T07:08:10.173Z,0.20
2019-02-03T07:09:10.027Z,0.30
2019-02-03T07:10:10.028Z,0.30
2019-02-03T07:11:10.027Z,0.30
2019-02-03T07:12:10.039Z,0.30
2019-02-03T07:13:10.039Z,0.40
2019-02-03T07:14:10.043Z,0.30
2019-02-03T07:15:10.048Z,0.30
2019-02-03T07:16:10.046Z,0.30
2019-02-03T07:17:10.052Z,0.30
2019-02-03T07:18:10.055Z,0.30
2019-02-03T07:19:10.058Z,0.20
2019-02-03T07:20:10.062Z,0.30
2019-02-03T07:21:10.066Z,0.20
2019-02-03T07:22:10.069Z,0.30
2019-02-03T07:23:10.121Z,0.20
2019-02-03T07:24:10.128Z,0.20
2019-02-03T07:25:10.080Z,0.30
2019-02-03T07:26:10.191Z,0.20
2019-02-03T07:27:12.007Z,0.30
2019-02-03T07:28:10.088Z,0.30
2019-02-03T07:29:10.092Z,0.30
2019-02-03T07:30:10.094Z,0.30
2019-02-03T07:31:10.099Z,0.20
2019-02-03T07:32:10.099Z,0.20
2019-02-03T07:33:10.102Z,0.30
2019-02-03T07:34:10.207Z,0.30
2019-02-03T07:35:10.109Z,0.30
2019-02-03T07:36:10.113Z,0.20
2019-02-03T07:37:10.124Z,0.20
2019-02-03T07:38:10.700Z,0.30
2019-02-03T07:39:10.122Z,0.20
2019-02-03T07:40:12.458Z,0.20
2019-02-03T07:41:10.131Z,0.30
2019-02-03T07:42:10.134Z,0.20
2019-02-03T07:43:10.135Z,0.30
2019-02-03T07:44:10.137Z,0.30
2019-02-03T07:45:10.142Z,0.30
2019-02-03T07:46:10.154Z,0.30
2019-02-03T07:47:10.150Z,0.20
2019-02-03T07:48:10.155Z,0.30
2019-02-03T07:49:10.157Z,0.20
2019-02-03T07:50:10.160Z,0.20
2019-02-03T07:51:10.158Z,0.20
2019-02-03T07:52:10.173Z,0.20
2019-02-03T07:53:10.168Z,0.30
2019-02-03T07:54:10.170Z,0.30
2019-02-03T07:55:10.184Z,0.30
2019-02-03T07:56:10.177Z,0.20
2019-02-03T07:57:10.180Z,0.20
2019-02-03T07:58:12.311Z,0.20
2019-02-03T07:59:10.187Z,0.20
2019-02-03T08:00:10.191Z,0.20
2019-02-03T08:01:10.241Z,0.20
2019-02-03T08:02:10.295Z,0.20
2019-02-03T08:03:10.200Z,0.30
2019-02-03T08:04:10.254Z,0.20
2019-02-03T08:05:10.255Z,0.20
2019-02-03T08:06:10.208Z,0.20
2019-02-03T08:07:10.214Z,0.30
2019-02-03T08:08:10.216Z,0.20
2019-02-03T08:09:10.223Z,0.20
2019-02-03T08:10:10.222Z,0.20
2019-02-03T08:11:10.231Z,0.20
2019-02-03T08:12:10.230Z,0.20
2019-02-03T08:13:10.233Z,0.20
2019-02-03T08:14:10.237Z,0.20
2019-02-03T08:15:10.238Z,0.20
2019-02-03T08:16:10.239Z,0.20
2019-02-03T08:17:10.245Z,0.20
2019-02-03T08:18:10.246Z,0.20
2019-02-03T08:19:10.252Z,0.20
2019-02-03T08:20:10.255Z,0.20
2019-02-03T08:21:10.260Z,0.20
2019-02-03T08:22:10.260Z,0.20
2019-02-03T08:23:10.264Z,0.30
2019-02-03T08:24:10.268Z,0.20
2019-02-03T08:25:10.271Z,0.20
2019-02-03T08:26:10.283Z,0.20
2019-02-03T08:27:10.279Z,0.20
2019-02-03T08:28:10.281Z,0.20
2019-02-03T08:29:10.284Z,0.20
2019-02-03T08:30:10.287Z,0.30
2019-02-03T08:31:10.289Z,0.20
2019-02-03T08:32:10.293Z,0.20
2019-02-03T08:33:10.296Z,0.20
2019-02-03T08:34:10.302Z,0.20
2019-02-03T08:35:10.302Z,0.20
2019-02-03T08:36:10.307Z,0.20
2019-02-03T08:37:10.309Z,0.20
2019-02-03T08:38:10.313Z,0.10
2019-02-03T08:39:10.316Z,0.20
2019-02-03T08:40:10.318Z,0.20
2019-02-03T08:41:10.321Z,0.20
2019-02-03T08:42:10.442Z,0.30
2019-02-03T08:43:10.327Z,0.20
2019-02-03T08:44:10.329Z,0.20
2019-02-03T08:45:10.335Z,0.20
2019-02-03T08:46:10.336Z,0.20
2019-02-03T08:47:10.341Z,0.20
2019-02-03T08:48:10.344Z,0.20
2019-02-03T08:49:10.347Z,0.30
2019-02-03T08:50:10.350Z,0.20
2019-02-03T08:51:10.354Z,0.20
2019-02-03T08:52:10.357Z,0.20
2019-02-03T08:53:10.359Z,0.20
2019-02-03T08:54:10.364Z,0.20
2019-02-03T08:55:10.366Z,0.30
2019-02-03T08:56:10.374Z,0.30
2019-02-03T08:57:10.374Z,0.20
2019-02-03T08:58:10.377Z,0.20
2019-02-03T08:59:10.383Z,0.20
2019-02-03T09:00:10.585Z,0.20
2019-02-03T09:01:10.385Z,0.20
2019-02-03T09:02:10.392Z,0.20
2019-02-03T09:03:10.393Z,0.20
2019-02-03T09:04:10.396Z,0.20
2019-02-03T09:05:10.399Z,0.20
2019-02-03T09:06:10.402Z,0.20
2019-02-03T09:07:10.405Z,0.10
2019-02-03T09:08:10.408Z,0.20
2019-02-03T09:09:10.411Z,0.20
2019-02-03T09:10:10.416Z,0.20
2019-02-03T09:11:10.418Z,0.20
2019-02-03T09:12:10.422Z,0.20
2019-02-03T09:13:10.428Z,0.20
2019-02-03T09:14:10.435Z,0.20
2019-02-03T09:15:10.682Z,0.20
2019-02-03T09:16:12.186Z,0.20
2019-02-03T09:17:10.438Z,0.30
2019-02-03T09:18:10.448Z,0.20
2019-02-03T09:19:10.449Z,0.20
2019-02-03T09:20:10.449Z,0.20
2019-02-03T09:21:10.457Z,0.20
2019-02-03T09:22:10.455Z,0.20
2019-02-03T09:23:10.456Z,0.20
2019-02-03T09:24:10.459Z,0.20
2019-02-03T09:25:10.463Z,0.20
2019-02-03T09:26:10.473Z,0.20
2019-02-03T09:27:10.469Z,0.20
2019-02-03T09:28:10.474Z,0.20
2019-02-03T09:29:10.476Z,0.20
2019-02-03T09:30:10.480Z,0.20
2019-02-03T09:31:10.482Z,0.20
2019-02-03T09:32:11.365Z,0.20
2019-02-03T09:33:10.492Z,0.10
2019-02-03T09:34:10.632Z,0.20
2019-02-03T09:35:10.497Z,0.20
2019-02-03T09:36:10.551Z,0.10
2019-02-03T09:37:10.510Z,0.10
2019-02-03T09:38:10.517Z,0.10
2019-02-03T09:39:10.518Z,0.20
2019-02-03T09:40:10.763Z,0.20
2019-02-03T09:41:10.519Z,0.20
2019-02-03T09:42:10.520Z,0.20
2019-02-03T09:43:10.579Z,0.20
2019-02-03T09:44:10.527Z,0.20
2019-02-03T09:45:10.528Z,0.20
2019-02-03T09:46:10.532Z,0.20
2019-02-03T09:47:10.534Z,0.20
2019-02-03T09:48:10.537Z,0.20
2019-02-03T09:49:10.541Z,0.10
2019-02-03T09:50:10.548Z,0.10
2019-02-03T09:51:10.546Z,0.20
2019-02-03T09:52:10.550Z,0.20
2019-02-03T09:53:10.554Z,0.10
2019-02-03T09:54:10.557Z,0.10
2019-02-03T09:55:10.560Z,0.20
2019-02-03T09:56:10.562Z,0.20
2019-02-03T09:57:10.566Z,0.30
2019-02-03T09:58:10.584Z,0.20
2019-02-03T09:59:10.574Z,0.20
2019-02-03T10:00:10.576Z,0.20
2019-02-03T10:01:10.577Z,0.20
2019-02-03T10:02:10.591Z,0.20
2019-02-03T10:03:10.590Z,0.20
2019-02-03T10:04:10.593Z,0.20
2019-02-03T10:05:10.595Z,0.20
2019-02-03T10:06:10.599Z,0.20
2019-02-03T10:07:10.600Z,0.20
2019-02-03T10:08:10.603Z,0.10
2019-02-03T10:09:10.605Z,0.20
2019-02-03T10:10:10.761Z,0.20
2019-02-03T10:11:12.340Z,0.30
2019-02-03T10:12:10.615Z,0.20
2019-02-03T10:13:10.620Z,0.20
2019-02-03T10:14:10.621Z,0.10
2019-02-03T10:15:10.724Z,0.20
2019-02-03T10:16:10.626Z,0.10
2019-02-03T10:17:10.632Z,0.10
2019-02-03T10:18:10.634Z,0.20
2019-02-03T10:19:10.637Z,0.10
2019-02-03T10:20:10.640Z,0.20
2019-02-03T10:21:10.645Z,0.20
2019-02-03T10:22:10.697Z,0.20
2019-02-03T10:23:10.649Z,0.20
2019-02-03T10:24:10.653Z,0.20
2019-02-03T10:25:10.657Z,0.20
2019-02-03T10:26:10.660Z,0.20
2019-02-03T10:27:10.664Z,0.20
2019-02-03T10:28:10.666Z,0.10
2019-02-03T10:29:10.670Z,0.20
2019-02-03T10:30:10.722Z,0.20
2019-02-03T10:31:10.676Z,0.20
2019-02-03T10:32:10.679Z,0.10
2019-02-03T10:33:10.688Z,0.20
2019-02-03T10:34:10.687Z,0.20
2019-02-03T10:35:22.691Z,0.20
2019-02-03T10:36:10.688Z,0.20
2019-02-03T10:37:10.743Z,0.20
2019-02-03T10:38:10.699Z,0.10
2019-02-03T10:39:10.711Z,0.20
2019-02-03T10:40:10.706Z,0.20
2019-02-03T10:41:10.711Z,0.20
2019-02-03T10:42:10.714Z,0.20
2019-02-03T10:43:10.718Z,0.20
2019-02-03T10:44:10.718Z,0.20
2019-02-03T10:45:10.721Z,0.10
2019-02-03T10:46:10.726Z,0.20
2019-02-03T10:47:10.825Z,0.20
2019-02-03T10:48:10.731Z,0.20
2019-02-03T10:49:10.734Z,0.10
2019-02-03T10:50:10.738Z,0.20
2019-02-03T10:51:10.738Z,0.10
2019-02-03T10:52:10.744Z,0.20
2019-02-03T10:53:10.755Z,0.10
2019-02-03T10:54:10.750Z,0.20
2019-02-03T10:55:10.853Z,0.20
2019-02-03T10:56:10.758Z,0.20
2019-02-03T10:57:10.758Z,0.20
2019-02-03T10:58:10.760Z,0.20
2019-02-03T10:59:10.765Z,0.20
2019-02-03T11:00:17.826Z,0.20
2019-02-03T11:01:10.775Z,0.20
2019-02-03T11:02:10.776Z,0.20
2019-02-03T11:03:10.828Z,0.20
2019-02-03T11:04:10.782Z,0.20
2019-02-03T11:05:10.787Z,0.10
2019-02-03T11:06:10.789Z,0.30
2019-02-03T11:07:10.790Z,0.20
2019-02-03T11:08:10.800Z,0.10
2019-02-03T11:09:10.799Z,0.20
2019-02-03T11:10:10.802Z,0.20
2019-02-03T11:11:10.805Z,0.20
2019-02-03T11:12:10.809Z,0.20
2019-02-03T11:13:10.811Z,0.20
2019-02-03T11:14:10.815Z,0.20
2019-02-03T11:15:10.817Z,0.20
2019-02-03T11:16:10.821Z,0.20
2019-02-03T11:17:10.828Z,0.20
2019-02-03T11:18:10.828Z,0.20
2019-02-03T11:19:10.831Z,0.20
2019-02-03T11:20:10.834Z,0.20
2019-02-03T11:21:10.837Z,0.20
2019-02-03T11:22:10.843Z,0.20
2019-02-03T11:23:10.843Z,0.20
2019-02-03T11:24:10.847Z,0.20
2019-02-03T11:25:10.849Z,0.20
2019-02-03T11:26:10.863Z,0.20
2019-02-03T11:27:10.856Z,0.20
2019-02-03T11:28:10.860Z,0.20
2019-02-03T11:29:10.864Z,0.20
2019-02-03T11:30:10.873Z,0.20
2019-02-03T11:31:10.880Z,0.30
2019-02-03T11:32:10.877Z,0.20
2019-02-03T11:33:10.876Z,0.20
2019-02-03T11:34:10.878Z,0.20
2019-02-03T11:35:10.931Z,0.20
2019-02-03T11:36:10.885Z,0.20
2019-02-03T11:37:10.890Z,0.20
2019-02-03T11:38:10.893Z,0.20
2019-02-03T11:39:10.895Z,0.20
2019-02-03T11:40:10.899Z,0.20
2019-02-03T11:41:10.903Z,0.20
2019-02-03T11:42:10.903Z,0.20
2019-02-03T11:43:10.908Z,0.20
2019-02-03T11:44:10.911Z,0.20
2019-02-03T11:45:10.915Z,0.20
2019-02-03T11:46:10.919Z,0.20
2019-02-03T11:47:10.921Z,0.20
2019-02-03T11:48:10.928Z,0.30
2019-02-03T11:49:10.983Z,0.20
2019-02-03T11:50:10.931Z,0.30
2019-02-03T11:51:10.937Z,0.20
2019-02-03T11:52:10.947Z,0.30
2019-02-03T11:53:10.940Z,0.20
2019-02-03T11:54:10.945Z,0.20
2019-02-03T11:55:10.946Z,0.20
2019-02-03T11:56:10.954Z,0.30
2019-02-03T11:57:10.951Z,0.20
2019-02-03T11:58:10.959Z,0.30
2019-02-03T11:59:10.962Z,0.30
2019-02-03T12:00:10.962Z,0.30
2019-02-03T12:01:10.963Z,0.20
2019-02-03T12:02:10.968Z,0.30
2019-02-03T12:03:10.973Z,0.20
2019-02-03T12:04:10.975Z,0.30
2019-02-03T12:05:10.980Z,0.20
2019-02-03T12:06:10.985Z,0.20
2019-02-03T12:07:10.986Z,0.20
2019-02-03T12:08:10.987Z,0.20
2019-02-03T12:09:10.991Z,0.30
2019-02-03T12:10:10.994Z,0.20
2019-02-03T12:11:10.997Z,0.40
2019-02-03T12:12:11.002Z,0.30
2019-02-03T12:13:11.005Z,0.30
2019-02-03T12:14:11.009Z,0.30
2019-02-03T12:15:11.110Z,0.30
2019-02-03T12:16:11.014Z,0.30
2019-02-03T12:17:11.018Z,0.20
2019-02-03T12:18:11.021Z,0.20
2019-02-03T12:19:11.023Z,0.30
2019-02-03T12:20:11.027Z,0.30
2019-02-03T12:21:11.038Z,0.30
2019-02-03T12:22:11.034Z,0.30
2019-02-03T12:23:11.037Z,0.20
2019-02-03T12:24:11.039Z,0.30
2019-02-03T12:25:11.042Z,0.20
2019-02-03T12:26:11.046Z,0.20
2019-02-03T12:27:11.048Z,0.30
2019-02-03T12:28:11.052Z,0.30
2019-02-03T12:29:11.063Z,0.30
2019-02-03T12:30:11.160Z,0.20
2019-02-03T12:31:11.063Z,0.30
2019-02-03T12:32:11.065Z,0.30
2019-02-03T12:33:11.068Z,0.30
2019-02-03T12:34:11.071Z,0.20
2019-02-03T12:35:11.074Z,0.40
2019-02-03T12:36:11.078Z,0.30
2019-02-03T12:37:11.131Z,0.30
2019-02-03T12:38:11.087Z,0.40
2019-02-03T12:39:11.087Z,0.20
2019-02-03T12:40:11.090Z,0.30
2019-02-03T12:41:11.094Z,0.30
2019-02-03T12:42:13.218Z,0.40
2019-02-03T12:43:11.209Z,0.30
2019-02-03T12:44:11.103Z,0.40
2019-02-03T12:45:11.158Z,0.30
2019-02-03T12:46:11.108Z,0.30
2019-02-03T12:47:11.112Z,0.30
2019-02-03T12:48:11.116Z,0.40
2019-02-03T12:49:11.119Z,0.30
2019-02-03T12:50:11.223Z,0.40
2019-02-03T12:51:11.128Z,0.30
2019-02-03T12:52:11.131Z,0.40
2019-02-03T12:53:11.285Z,0.40
2019-02-03T12:54:11.138Z,0.30
2019-02-03T12:55:11.139Z,0.30
2019-02-03T12:56:11.141Z,0.20
2019-02-03T12:57:11.145Z,0.30
2019-02-03T12:58:11.148Z,0.30
2019-02-03T12:59:11.150Z,0.30
2019-02-03T13:00:11.355Z,0.30
2019-02-03T13:01:11.158Z,0.40
2019-02-03T13:02:11.168Z,0.30
2019-02-03T13:03:11.165Z,0.30
2019-02-03T13:04:11.167Z,0.30
2019-02-03T13:05:11.172Z,0.40
2019-02-03T13:06:11.210Z,0.30
2019-02-03T13:07:11.178Z,0.40
2019-02-03T13:08:11.178Z,0.30
2019-02-03T13:09:11.182Z,0.30
2019-02-03T13:10:16.733Z,0.40
2019-02-03T13:11:11.192Z,0.40
2019-02-03T13:12:11.195Z,0.40
2019-02-03T13:13:11.213Z,0.40
2019-02-03T13:14:11.199Z,0.40
2019-02-03T13:15:11.204Z,0.30
2019-02-03T13:16:11.204Z,0.40
2019-02-03T13:17:11.211Z,0.30
2019-02-03T13:18:11.212Z,0.40